X  Sluiten METAR luchtvaart weer gegevens      EHEH Eindhoven Airport
Temperatuur
6°C Temperatuur
5°C Dauwpunt
93% Vochtigheid



Wind
11 KM/U
7 MPH
3 M/S
6 KTS



330°
NNW
Huidig weer

Motregen Motregen
Luchtdruk 1024.92 (hPa) - 30.27 (inHg)
Zicht 1.9 (mijl) - 3 (km)
Vliegveld
Vliegveld code EHEH

Locatie : Eindhoven Airport
Afstand: 50 (km)

Metar:
EHEH 032225Z AUTO 33006KT 290V010 2600 DZ FEW015CB SCT055 OVC062 06/05 Q1025 YLO

Tijd: 03-03-2021 23:25 CET